Time;durP1;ratioP1;P1;durP2;ratioP2;P2;SDS_P1;SDS_P2;PMS_P1;PMS_P2;Temp;Humidity;BMP_temperature;BMP_pressure;BME280_temperature;BME280_humidity;BME280_pressure;Samples;Min_cycle;Max_cycle;Signal;HPM_P1;HPM_P2
2021/01/20 00:01:24;;;;;;;54.65;34.92;;;2.60;94.70;;;;;;5109556;28;20253;-83
2021/01/20 00:03:50;;;;;;;49.57;36.00;;;2.60;94.70;;;;;;5111146;28;20534;-83
2021/01/20 00:06:16;;;;;;;45.77;35.43;;;2.60;94.70;;;;;;5109501;28;20180;-83
2021/01/20 00:08:41;;;;;;;43.10;31.73;;;2.60;94.50;;;;;;5111522;28;20180;-84
2021/01/20 00:11:07;;;;;;;45.63;32.73;;;2.70;94.60;;;;;;5110589;28;20203;-83
2021/01/20 00:13:33;;;;;;;48.20;34.27;;;2.70;94.70;;;;;;5109875;28;20180;-83
2021/01/20 00:15:58;;;;;;;46.53;35.07;;;2.80;94.40;;;;;;5109668;28;20184;-83
2021/01/20 00:18:24;;;;;;;46.83;32.93;;;2.70;94.50;;;;;;5107988;28;20211;-83
2021/01/20 00:20:50;;;;;;;44.17;32.37;;;2.70;94.70;;;;;;5110084;28;20632;-82
2021/01/20 00:23:15;;;;;;;45.23;32.20;;;2.60;94.50;;;;;;5111044;28;20184;-83
2021/01/20 00:25:41;;;;;;;48.53;34.37;;;2.70;94.40;;;;;;5110510;28;20251;-83
2021/01/20 00:28:07;;;;;;;51.00;33.93;;;2.70;94.40;;;;;;5109994;28;20218;-83
2021/01/20 00:30:33;;;;;;;41.88;34.83;;;2.60;94.40;;;;;;5109397;28;20498;-83
2021/01/20 00:32:59;;;;;;;44.17;33.13;;;2.80;94.30;;;;;;5108718;28;20635;-83
2021/01/20 00:35:26;;;;;;;45.83;33.60;;;2.70;94.40;;;;;;5108197;28;20723;-82
2021/01/20 00:37:51;;;;;;;49.15;35.70;;;2.70;94.30;;;;;;5109744;28;20474;-83
2021/01/20 00:40:18;;;;;;;47.40;31.67;;;2.70;94.20;;;;;;5108724;28;20202;-83
2021/01/20 00:42:44;;;;;;;41.80;33.42;;;2.80;94.20;;;;;;5108924;28;20184;-83
2021/01/20 00:45:10;;;;;;;46.67;33.13;;;2.80;94.30;;;;;;5107297;28;20180;-83
2021/01/20 00:47:36;;;;;;;44.40;31.20;;;2.80;94.30;;;;;;5110493;28;20618;-83
2021/01/20 00:50:04;;;;;;;45.33;31.60;;;2.80;94.10;;;;;;5107443;28;20176;-83
2021/01/20 00:52:30;;;;;;;43.88;31.25;;;2.80;94.20;;;;;;5107553;28;20849;-84
2021/01/20 00:54:55;;;;;;;45.17;34.63;;;2.80;94.00;;;;;;5108615;28;20180;-82
2021/01/20 00:57:21;;;;;;;46.87;33.57;;;2.80;93.90;;;;;;5109115;28;20310;-83
2021/01/20 00:59:46;;;;;;;45.03;29.37;;;2.80;94.00;;;;;;5109064;28;20170;-83
2021/01/20 01:02:12;;;;;;;47.00;35.20;;;2.80;93.80;;;;;;5109979;28;20259;-82
2021/01/20 01:04:38;;;;;;;45.77;33.10;;;2.90;93.90;;;;;;5109334;28;20247;-83
2021/01/20 01:07:03;;;;;;;45.10;31.83;;;2.90;93.90;;;;;;5107089;28;20212;-83
2021/01/20 01:09:29;;;;;;;47.77;34.90;;;2.90;93.90;;;;;;5107917;28;20172;-83
2021/01/20 01:11:55;;;;;;;53.00;37.90;;;2.90;94.00;;;;;;5109279;28;20180;-83
2021/01/20 01:14:20;;;;;;;46.33;33.33;;;2.90;94.00;;;;;;5108615;28;20287;-83
2021/01/20 01:16:47;;;;;;;45.20;30.47;;;2.90;94.00;;;;;;5108867;28;20564;-83
2021/01/20 01:19:12;;;;;;;42.83;32.25;;;2.90;94.00;;;;;;5109397;28;20184;-83
2021/01/20 01:21:38;;;;;;;38.80;29.63;;;2.80;94.20;;;;;;5108232;28;20236;-83
2021/01/20 01:24:04;;;;;;;42.70;35.20;;;2.80;94.00;;;;;;5110919;28;20656;-83
2021/01/20 01:26:30;;;;;;;46.42;34.67;;;2.90;93.90;;;;;;5110164;28;20187;-83
2021/01/20 01:28:57;;;;;;;45.00;33.00;;;2.80;94.00;;;;;;5109873;28;20172;-83
2021/01/20 01:31:23;;;;;;;41.97;32.22;;;2.80;94.00;;;;;;5109562;28;20172;-83
2021/01/20 01:33:48;;;;;;;40.73;29.40;;;3.00;93.80;;;;;;5109643;28;20560;-82
2021/01/20 01:36:14;;;;;;;43.27;35.67;;;3.00;93.70;;;;;;5109699;28;20199;-82
2021/01/20 01:38:40;;;;;;;40.77;29.77;;;3.00;93.90;;;;;;5109737;28;20286;-83
2021/01/20 01:41:05;;;;;;;49.00;35.10;;;3.00;93.60;;;;;;5109296;28;20654;-83
2021/01/20 01:43:31;;;;;;;46.47;30.97;;;3.00;93.60;;;;;;5108684;28;20191;-83
2021/01/20 01:45:56;;;;;;;43.87;30.83;;;3.00;93.80;;;;;;5107959;28;20175;-82
2021/01/20 01:48:22;;;;;;;45.53;34.33;;;3.10;93.50;;;;;;5108024;28;20203;-83
2021/01/20 01:50:49;;;;;;;47.43;37.93;;;3.00;93.50;;;;;;5109658;28;20175;-83
2021/01/20 01:53:15;;;;;;;45.85;34.45;;;3.10;93.70;;;;;;5107131;28;20224;-83
2021/01/20 01:55:41;;;;;;;50.17;34.73;;;3.00;93.60;;;;;;5108877;28;20213;-83
2021/01/20 01:58:07;;;;;;;45.07;29.87;;;3.00;93.70;;;;;;5109224;28;20426;-84
2021/01/20 02:00:34;;;;;;;42.30;29.38;;;3.10;93.50;;;;;;5108758;28;20956;-83
2021/01/20 02:03:01;;;;;;;39.75;31.90;;;3.00;93.70;;;;;;5108993;28;20176;-82
2021/01/20 02:05:27;;;;;;;43.80;31.83;;;3.00;93.80;;;;;;5111709;27;20277;-83
2021/01/20 02:07:53;;;;;;;45.88;30.58;;;3.00;93.90;;;;;;5113286;28;20184;-83
2021/01/20 02:10:19;;;;;;;45.65;32.50;;;3.00;93.90;;;;;;5112204;28;20188;-83
2021/01/20 02:12:54;;;;;;;35.08;25.17;;;3.10;93.70;;;;;;5111015;28;20515;-84
2021/01/20 02:15:55;;;;;;;38.50;28.25;;;3.20;93.40;;;;;;5112962;28;20220;-84
2021/01/20 02:18:25;;;;;;;42.88;28.73;;;3.20;93.40;;;;;;5070549;28;20195;-83
2021/01/20 02:21:26;;;;;;;41.10;30.08;;;3.20;93.40;;;;;;5106284;28;20199;-83
2021/01/20 02:23:55;;;;;;;38.22;29.00;;;3.10;93.60;;;;;;5112776;28;20187;-83
2021/01/20 02:26:57;;;;;;;38.35;30.60;;;3.10;93.80;;;;;;5113920;28;20640;-83
2021/01/20 02:29:57;;;;;;;41.05;30.23;;;3.10;93.80;;;;;;5112445;28;20695;-83
2021/01/20 02:32:26;;;;;;;42.95;31.92;;;3.10;93.70;;;;;;5111405;28;20634;-83
2021/01/20 02:34:54;;;;;;;42.92;29.55;;;3.20;93.70;;;;;;5113426;28;20164;-82
2021/01/20 02:37:23;;;;;;;37.63;30.63;;;3.20;93.60;;;;;;5112512;28;20298;-83
2021/01/20 02:39:48;;;;;;;36.50;29.15;;;3.20;93.60;;;;;;5112354;28;20180;-83
2021/01/20 02:42:14;;;;;;;40.03;30.40;;;3.20;93.60;;;;;;5113252;28;20534;-82
2021/01/20 02:44:40;;;;;;;38.30;28.20;;;3.10;93.80;;;;;;5112482;28;20491;-82
2021/01/20 02:47:25;;;;;;;40.50;29.93;;;3.10;93.80;;;;;;5112607;28;20175;-83
2021/01/20 02:49:52;;;;;;;39.97;27.95;;;3.00;94.00;;;;;;5113292;28;20427;-83
2021/01/20 02:52:53;;;;;;;35.35;27.95;;;3.00;94.20;;;;;;5112638;28;20182;-84
2021/01/20 02:55:21;;;;;;;39.80;27.13;;;3.00;94.30;;;;;;5110147;28;20195;-83
2021/01/20 02:57:53;;;;;;;37.75;29.55;;;3.00;94.30;;;;;;5111006;28;20726;-83
2021/01/20 03:00:20;;;;;;;41.75;30.45;;;3.10;94.20;;;;;;5111299;28;20598;-83
2021/01/20 03:02:51;;;;;;;41.53;23.88;;;3.10;94.10;;;;;;5112020;28;20180;-84
2021/01/20 03:05:18;;;;;;;34.33;25.73;;;3.10;94.10;;;;;;5110397;28;20206;-83
2021/01/20 03:07:44;;;;;;;35.65;23.58;;;3.10;94.10;;;;;;5110148;28;20187;-83
2021/01/20 03:10:12;;;;;;;37.20;27.50;;;3.10;94.10;;;;;;5112895;28;20186;-83
2021/01/20 03:12:38;;;;;;;35.30;25.13;;;3.20;94.10;;;;;;5111088;28;20422;-84
2021/01/20 03:15:12;;;;;;;37.45;27.55;;;3.30;93.90;;;;;;5110840;28;20180;-83
2021/01/20 03:17:38;;;;;;;32.70;25.70;;;3.20;94.00;;;;;;5111783;28;20231;-83
2021/01/20 03:20:04;;;;;;;37.70;26.40;;;3.30;94.00;;;;;;5111356;28;20180;-83
2021/01/20 03:22:29;;;;;;;43.88;30.30;;;3.20;94.00;;;;;;5110900;27;20273;-83
2021/01/20 03:24:55;;;;;;;36.47;27.70;;;3.30;93.90;;;;;;5110668;28;20636;-83
2021/01/20 03:27:21;;;;;;;32.90;24.87;;;3.20;94.20;;;;;;5111663;28;20203;-83
2021/01/20 03:29:46;;;;;;;32.07;24.13;;;3.20;94.20;;;;;;5111330;28;20628;-84
2021/01/20 03:32:12;;;;;;;40.27;29.50;;;3.20;94.30;;;;;;5110065;28;20183;-83
2021/01/20 03:34:39;;;;;;;37.73;27.27;;;3.20;94.30;;;;;;5111512;28;20180;-83
2021/01/20 03:37:05;;;;;;;36.10;25.95;;;3.30;94.20;;;;;;5110224;28;20206;-83
2021/01/20 03:39:31;;;;;;;37.33;26.20;;;3.30;94.20;;;;;;5111849;28;20179;-83
2021/01/20 03:41:56;;;;;;;40.70;28.70;;;3.30;94.30;;;;;;5111585;28;20164;-83
2021/01/20 03:44:23;;;;;;;33.30;22.80;;;3.30;94.10;;;;;;5110120;28;20187;-83
2021/01/20 03:46:50;;;;;;;35.33;25.33;;;3.30;94.10;;;;;;5111138;28;20746;-84
2021/01/20 03:49:16;;;;;;;31.88;25.15;;;3.30;94.10;;;;;;5108403;28;20656;-83
2021/01/20 03:51:42;;;;;;;34.47;23.27;;;3.30;94.10;;;;;;5109768;28;20188;-83
2021/01/20 03:54:07;;;;;;;31.43;23.67;;;3.30;94.20;;;;;;5110336;28;20590;-83
2021/01/20 03:56:33;;;;;;;31.27;23.60;;;3.30;94.20;;;;;;5110351;28;20655;-83
2021/01/20 03:58:59;;;;;;;29.57;22.53;;;3.30;94.40;;;;;;5109375;28;20316;-84
2021/01/20 04:01:24;;;;;;;29.30;24.43;;;3.30;94.30;;;;;;5110855;28;20171;-83
2021/01/20 04:03:50;;;;;;;34.80;24.07;;;3.40;94.30;;;;;;5110296;28;20180;-83
2021/01/20 04:06:16;;;;;;;30.70;22.63;;;3.30;94.30;;;;;;5110297;28;20509;-83
2021/01/20 04:08:41;;;;;;;30.43;22.63;;;3.40;94.30;;;;;;5111562;28;20301;-83
2021/01/20 04:11:07;;;;;;;33.30;22.63;;;3.40;94.30;;;;;;5110516;28;20168;-84
2021/01/20 04:13:35;;;;;;;29.77;21.90;;;3.40;94.30;;;;;;5110924;28;20176;-83
2021/01/20 04:16:02;;;;;;;30.83;23.08;;;3.30;94.50;;;;;;5110562;28;20313;-83
2021/01/20 04:18:28;;;;;;;30.00;22.27;;;3.40;94.50;;;;;;5110332;28;20203;-82
2021/01/20 04:20:54;;;;;;;30.67;22.80;;;3.40;94.50;;;;;;5110720;28;20531;-83
2021/01/20 04:23:19;;;;;;;31.47;21.00;;;3.40;94.40;;;;;;5109276;28;20392;-83
2021/01/20 04:25:45;;;;;;;28.57;20.63;;;3.40;94.40;;;;;;5109552;28;20175;-84
2021/01/20 04:28:11;;;;;;;25.17;19.90;;;3.50;94.40;;;;;;5110353;28;20270;-83
2021/01/20 04:30:36;;;;;;;25.00;20.23;;;3.50;94.40;;;;;;5111087;28;20674;-83
2021/01/20 04:33:02;;;;;;;24.93;19.30;;;3.50;94.40;;;;;;5108831;28;20233;-83
2021/01/20 04:35:28;;;;;;;25.80;19.70;;;3.50;94.40;;;;;;5110712;28;20183;-83
2021/01/20 04:37:54;;;;;;;26.90;20.20;;;3.60;94.30;;;;;;5107973;28;20595;-83
2021/01/20 04:40:20;;;;;;;23.00;20.13;;;3.60;94.30;;;;;;5110006;28;20178;-83
2021/01/20 04:42:46;;;;;;;23.80;17.20;;;3.60;94.60;;;;;;5110110;27;20180;-83
2021/01/20 04:45:12;;;;;;;26.23;20.73;;;3.70;94.20;;;;;;5110083;28;20642;-83
2021/01/20 04:47:40;;;;;;;23.30;19.20;;;3.70;94.20;;;;;;5110048;28;20478;-83
2021/01/20 04:50:09;;;;;;;24.63;17.33;;;3.60;94.40;;;;;;5109216;28;20240;-84
2021/01/20 04:52:37;;;;;;;23.73;18.02;;;3.70;94.30;;;;;;5110355;28;20176;-83
2021/01/20 04:55:04;;;;;;;23.67;18.63;;;3.70;94.10;;;;;;5108425;28;20727;-83
2021/01/20 04:57:33;;;;;;;27.77;18.55;;;3.70;94.20;;;;;;5109651;28;20207;-84
2021/01/20 04:59:59;;;;;;;25.90;18.52;;;3.70;94.20;;;;;;5109782;28;20562;-83
2021/01/20 05:02:28;;;;;;;23.93;18.43;;;3.80;94.20;;;;;;5110268;28;20329;-83
2021/01/20 05:04:54;;;;;;;26.25;19.63;;;3.70;94.10;;;;;;5110870;28;20846;-83
2021/01/20 05:07:20;;;;;;;27.70;18.38;;;3.80;94.30;;;;;;5109874;28;20639;-84
2021/01/20 05:09:46;;;;;;;25.40;19.00;;;3.70;94.40;;;;;;5109793;28;20182;-83
2021/01/20 05:12:34;;;;;;;25.13;18.80;;;3.60;94.60;;;;;;5108277;28;20595;-83
2021/01/20 05:15:03;;;;;;;23.35;18.50;;;3.60;94.70;;;;;;5110210;28;20211;-84
2021/01/20 05:17:28;;;;;;;24.85;19.55;;;3.70;94.50;;;;;;5110127;28;20702;-84
2021/01/20 05:19:54;;;;;;;24.83;17.90;;;3.70;94.60;;;;;;5110729;28;20577;-83
2021/01/20 05:22:19;;;;;;;25.23;18.60;;;3.70;94.50;;;;;;5109773;28;20643;-83
2021/01/20 05:25:04;;;;;;;22.73;17.80;;;3.80;94.30;;;;;;5110649;28;20168;-83
2021/01/20 05:27:31;;;;;;;23.33;18.77;;;3.70;94.50;;;;;;5108775;28;20243;-83
2021/01/20 05:29:57;;;;;;;28.35;19.00;;;3.70;94.70;;;;;;5110309;28;20175;-83
2021/01/20 05:32:22;;;;;;;23.33;17.50;;;3.70;94.70;;;;;;5110325;28;20180;-83
2021/01/20 05:34:58;;;;;;;23.10;17.67;;;3.70;94.60;;;;;;5110154;28;20179;-84
2021/01/20 05:37:24;;;;;;;23.38;17.63;;;3.60;94.90;;;;;;5109183;28;20219;-83
2021/01/20 05:39:50;;;;;;;19.00;15.87;;;3.60;95.00;;;;;;5107813;28;20204;-83
2021/01/20 05:42:15;;;;;;;25.23;16.97;;;3.60;95.00;;;;;;5108688;28;20172;-83
2021/01/20 05:44:59;;;;;;;24.50;16.63;;;3.70;95.10;;;;;;5109398;28;20220;-83
2021/01/20 05:47:25;;;;;;;21.23;16.42;;;3.70;95.10;;;;;;5108527;28;20385;-83
2021/01/20 05:50:03;;;;;;;21.03;17.97;;;3.80;94.90;;;;;;5107533;28;20637;-83
2021/01/20 05:52:28;;;;;;;34.08;27.80;;;3.70;94.90;;;;;;5109930;28;20194;-83
2021/01/20 05:54:54;;;;;;;31.43;25.17;;;3.80;94.90;;;;;;5110672;28;20172;-83
2021/01/20 05:57:21;;;;;;;23.53;18.80;;;3.90;94.80;;;;;;5110028;28;20214;-83
2021/01/20 05:59:49;;;;;;;23.25;17.17;;;4.00;94.60;;;;;;5109913;28;20176;-83
2021/01/20 06:02:15;;;;;;;24.67;15.80;;;4.10;94.40;;;;;;5108546;28;20175;-83
2021/01/20 06:04:42;;;;;;;28.77;25.13;;;4.00;94.70;;;;;;5110204;28;20176;-83
2021/01/20 06:07:10;;;;;;;28.00;23.15;;;4.00;94.60;;;;;;5108963;28;20650;-83
2021/01/20 06:09:38;;;;;;;44.17;33.40;;;3.90;95.00;;;;;;5111575;28;20174;-83
2021/01/20 06:12:05;;;;;;;22.65;17.75;;;3.90;95.10;;;;;;5112704;28;20175;-83
2021/01/20 06:14:31;;;;;;;28.45;18.75;;;4.00;95.10;;;;;;5112571;28;20295;-84
2021/01/20 06:17:34;;;;;;;26.07;21.50;;;4.10;94.90;;;;;;5110483;28;20274;-83
2021/01/20 06:20:04;;;;;;;68.85;41.97;;;4.00;95.10;;;;;;5086764;28;20782;-84
2021/01/20 06:22:32;;;;;;;30.00;24.48;;;4.10;95.00;;;;;;5108985;28;20168;-83
2021/01/20 06:25:03;;;;;;;23.85;19.30;;;4.10;95.10;;;;;;5108896;28;20251;-83
2021/01/20 06:27:41;;;;;;;34.58;30.30;;;4.10;95.20;;;;;;5109473;28;20187;-83
2021/01/20 06:30:16;;;;;;;31.30;26.30;;;4.10;95.20;;;;;;5109308;28;20164;-83
2021/01/20 06:32:47;;;;;;;31.35;24.20;;;4.10;95.20;;;;;;5108133;28;20183;-83
2021/01/20 06:35:14;;;;;;;34.90;27.83;;;4.10;95.30;;;;;;5108614;28;20272;-83
2021/01/20 06:37:44;;;;;;;22.50;17.75;;;4.20;95.20;;;;;;5107400;28;20222;-83
2021/01/20 06:40:22;;;;;;;23.95;20.98;;;4.20;95.10;;;;;;5107450;28;20228;-83
2021/01/20 06:42:49;;;;;;;23.67;17.75;;;4.30;95.10;;;;;;5108699;28;20172;-83
2021/01/20 06:45:26;;;;;;;20.10;15.27;;;4.30;95.00;;;;;;5107146;28;20175;-83
2021/01/20 06:48:02;;;;;;;22.63;15.10;;;4.30;94.90;;;;;;5107517;28;20183;-83
2021/01/20 06:50:29;;;;;;;18.10;16.02;;;4.40;94.80;;;;;;5107639;28;20182;-83
2021/01/20 06:53:06;;;;;;;19.83;16.42;;;4.40;94.90;;;;;;5111468;28;20344;-83
2021/01/20 06:55:39;;;;;;;25.23;19.15;;;4.30;94.90;;;;;;5113212;28;20172;-83
2021/01/20 06:58:30;;;;;;;21.38;16.67;;;4.40;94.80;;;;;;5110499;28;20280;-83
2021/01/20 07:01:17;;;;;;;23.85;18.58;;;4.40;94.80;;;;;;5113117;28;20514;-83
2021/01/20 07:03:54;;;;;;;34.38;23.02;;;4.40;94.80;;;;;;5112800;27;20278;-83
2021/01/20 07:06:38;;;;;;;47.08;29.73;;;4.40;94.90;;;;;;5111749;27;20186;-84
2021/01/20 07:09:11;;;;;;;50.60;35.40;;;4.30;95.10;;;;;;5113343;28;20619;-84
2021/01/20 07:12:01;;;;;;;22.38;15.50;;;4.20;95.30;;;;;;5113794;27;20706;-83
2021/01/20 07:14:31;;;;;;;20.63;18.15;;;4.30;95.30;;;;;;5114166;27;20228;-84
2021/01/20 07:16:57;;;;;;;20.50;18.40;;;4.30;95.40;;;;;;5112057;27;20203;-84
2021/01/20 07:19:26;;;;;;;18.95;16.40;;;4.30;95.50;;;;;;5116551;27;20183;-84
2021/01/20 07:21:56;;;;;;;23.65;17.33;;;4.20;95.50;;;;;;5120953;27;20187;-84
2021/01/20 07:24:22;;;;;;;21.90;17.63;;;4.30;95.60;;;;;;5111396;28;20195;-84
2021/01/20 07:26:48;;;;;;;21.73;18.90;;;4.30;95.50;;;;;;5121615;27;20187;-84
2021/01/20 07:29:15;;;;;;;18.38;15.85;;;4.30;96.00;;;;;;5131068;27;20215;-84
2021/01/20 07:31:49;;;;;;;17.13;14.55;;;4.30;95.90;;;;;;5118964;27;20258;-84
2021/01/20 07:34:16;;;;;;;19.00;16.95;;;4.30;95.70;;;;;;5107678;27;20712;-84
2021/01/20 07:36:42;;;;;;;19.45;15.77;;;4.30;95.80;;;;;;5110377;27;20659;-84
2021/01/20 07:39:24;;;;;;;20.48;13.75;;;4.30;95.80;;;;;;5104907;28;20192;-84
2021/01/20 07:41:57;;;;;;;30.20;23.00;;;4.30;95.70;;;;;;5104241;28;20176;-84
2021/01/20 07:44:24;;;;;;;19.52;14.30;;;4.40;95.70;;;;;;5093440;28;20176;-84
2021/01/20 07:47:17;;;;;;;22.92;18.63;;;4.50;95.50;;;;;;5101086;28;20180;-83
2021/01/20 07:49:53;;;;;;;32.53;26.67;;;4.60;95.50;;;;;;5110254;28;20210;-83
2021/01/20 07:52:19;;;;;;;25.65;21.05;;;4.60;95.50;;;;;;5109580;28;20631;-84
2021/01/20 07:54:48;;;;;;;25.13;21.70;;;4.80;95.30;;;;;;5101669;27;20221;-84
2021/01/20 07:57:18;;;;;;;27.13;23.08;;;4.80;95.30;;;;;;5093852;28;20241;-84
2021/01/20 07:59:45;;;;;;;42.17;32.40;;;4.90;94.90;;;;;;5090606;28;20180;-84
2021/01/20 08:02:12;;;;;;;19.30;16.30;;;4.90;95.00;;;;;;5105865;28;20183;-84
2021/01/20 08:04:38;;;;;;;42.85;37.85;;;4.90;95.30;;;;;;5108022;28;20533;-84
2021/01/20 08:07:05;;;;;;;19.60;13.98;;;5.10;94.80;;;;;;5098397;28;20185;-84
2021/01/20 08:09:43;;;;;;;22.40;19.50;;;5.20;94.80;;;;;;5109531;28;20209;-83
2021/01/20 08:12:30;;;;;;;14.25;12.70;;;5.50;94.30;;;;;;5096008;28;20540;-84
2021/01/20 08:14:57;;;;;;;23.77;21.48;;;5.60;94.00;;;;;;5089950;28;20189;-83
2021/01/20 08:17:23;;;;;;;30.50;27.27;;;5.80;94.00;;;;;;5102471;28;20215;-84
2021/01/20 08:19:49;;;;;;;28.02;25.00;;;5.90;93.50;;;;;;5097643;28;20176;-84
2021/01/20 08:22:16;;;;;;;23.25;20.90;;;6.00;93.60;;;;;;5102695;27;20700;-83
2021/01/20 08:24:46;;;;;;;15.57;13.68;;;6.10;93.10;;;;;;5111790;27;20172;-84
2021/01/20 08:27:13;;;;;;;30.52;24.48;;;6.30;93.00;;;;;;5106120;27;20297;-84
2021/01/20 08:29:52;;;;;;;31.73;24.33;;;6.30;92.90;;;;;;5106500;27;20586;-84
2021/01/20 08:32:17;;;;;;;23.58;18.73;;;6.40;92.80;;;;;;5108452;28;20172;-85
2021/01/20 08:34:45;;;;;;;20.77;18.17;;;6.40;92.70;;;;;;5109856;28;20180;-84
2021/01/20 08:37:13;;;;;;;16.08;13.90;;;6.30;92.70;;;;;;5112486;27;20196;-84
2021/01/20 08:39:51;;;;;;;14.95;13.45;;;6.20;93.20;;;;;;5108895;28;20183;-83
2021/01/20 08:42:17;;;;;;;15.35;13.63;;;6.30;93.30;;;;;;5111160;28;20228;-84
2021/01/20 08:45:07;;;;;;;17.03;13.33;;;6.30;93.30;;;;;;5109683;28;20176;-84
2021/01/20 08:47:48;;;;;;;19.88;16.35;;;6.40;93.20;;;;;;5110416;27;20919;-84
2021/01/20 08:50:16;;;;;;;14.68;12.70;;;6.50;93.30;;;;;;5100672;28;20266;-84
2021/01/20 08:52:43;;;;;;;15.30;11.77;;;6.60;92.90;;;;;;5108165;27;20272;-85
2021/01/20 08:55:18;;;;;;;15.60;11.98;;;6.70;92.80;;;;;;5102501;27;20523;-85
2021/01/20 08:57:44;;;;;;;15.13;11.02;;;6.70;92.70;;;;;;5098541;28;20600;-83
2021/01/20 09:00:10;;;;;;;15.83;12.80;;;6.70;92.80;;;;;;5112013;28;20176;-83
2021/01/20 09:02:36;;;;;;;15.05;12.85;;;6.80;92.70;;;;;;5109680;28;20212;-84
2021/01/20 09:05:03;;;;;;;15.13;13.63;;;6.70;92.90;;;;;;5109812;28;20207;-84
2021/01/20 09:07:29;;;;;;;16.00;14.33;;;6.80;93.10;;;;;;5104591;28;20191;-84
2021/01/20 09:09:54;;;;;;;12.80;11.50;;;6.90;92.90;;;;;;5114477;27;20991;-84
2021/01/20 09:12:20;;;;;;;16.37;14.63;;;6.90;92.70;;;;;;5110354;27;20256;-83
2021/01/20 09:14:46;;;;;;;12.13;10.77;;;7.00;92.60;;;;;;5114587;27;20299;-83
2021/01/20 09:17:11;;;;;;;12.87;11.37;;;7.00;92.50;;;;;;5103758;28;20552;-84
2021/01/20 09:19:37;;;;;;;13.33;11.93;;;7.10;92.80;;;;;;5119125;27;20172;-83
2021/01/20 09:22:03;;;;;;;13.47;10.53;;;7.10;92.60;;;;;;5111045;28;20229;-83
2021/01/20 09:24:30;;;;;;;13.80;11.67;;;7.20;92.70;;;;;;5109455;28;20225;-83
2021/01/20 09:26:57;;;;;;;16.90;15.05;;;7.30;92.80;;;;;;5101861;28;20180;-83
2021/01/20 09:29:27;;;;;;;20.70;18.48;;;7.40;92.40;;;;;;5104091;28;20185;-83
2021/01/20 09:31:55;;;;;;;29.65;26.50;;;7.40;92.40;;;;;;5111546;28;20221;-83
2021/01/20 09:34:20;;;;;;;20.85;18.65;;;7.50;92.50;;;;;;5111449;28;20188;-85
2021/01/20 09:36:46;;;;;;;32.10;28.73;;;7.50;92.40;;;;;;5110200;28;20697;-83
2021/01/20 09:39:12;;;;;;;18.30;16.50;;;7.60;92.30;;;;;;5097236;28;20671;-82
2021/01/20 09:41:38;;;;;;;12.73;11.43;;;7.70;92.40;;;;;;5106712;27;20648;-83
2021/01/20 09:44:03;;;;;;;16.70;15.10;;;7.80;92.10;;;;;;5107851;27;20403;-83
2021/01/20 09:46:29;;;;;;;18.27;16.37;;;7.90;92.10;;;;;;5110931;27;20230;-84
2021/01/20 09:48:55;;;;;;;26.70;19.37;;;8.00;91.90;;;;;;5102276;28;20184;-85
2021/01/20 09:51:21;;;;;;;22.92;17.45;;;8.10;91.80;;;;;;5108567;28;20176;-84
2021/01/20 09:53:46;;;;;;;11.63;10.43;;;8.30;91.50;;;;;;5112430;28;20219;-84
2021/01/20 09:56:12;;;;;;;15.80;12.53;;;8.30;91.10;;;;;;5101794;28;20208;-85
2021/01/20 09:58:45;;;;;;;28.20;22.60;;;8.40;90.80;;;;;;5110635;28;20187;-84
2021/01/20 10:01:11;;;;;;;20.52;16.25;;;8.40;90.80;;;;;;5108399;28;20381;-84
2021/01/20 10:03:37;;;;;;;23.45;17.23;;;8.40;90.70;;;;;;5098129;28;20203;-83
2021/01/20 10:06:03;;;;;;;27.77;19.27;;;8.60;90.50;;;;;;5098478;28;20212;-84
2021/01/20 10:08:31;;;;;;;10.83;9.77;;;8.90;89.80;;;;;;5091429;28;20187;-84
2021/01/20 10:10:57;;;;;;;9.27;8.40;;;9.10;89.20;;;;;;5105103;28;20183;-83
2021/01/20 10:13:24;;;;;;;10.10;9.10;;;9.30;87.40;;;;;;5103337;28;20184;-83
2021/01/20 10:15:49;;;;;;;10.40;7.95;;;9.30;86.90;;;;;;5090866;28;20181;-84
2021/01/20 10:18:15;;;;;;;9.20;8.30;;;9.40;87.10;;;;;;5101314;28;20214;-84
2021/01/20 10:20:41;;;;;;;7.07;6.37;;;9.30;86.70;;;;;;5111676;28;20191;-84
2021/01/20 10:23:10;;;;;;;7.20;6.20;;;9.30;86.60;;;;;;5091530;28;20242;-83
2021/01/20 10:25:36;;;;;;;8.75;6.88;;;9.40;85.90;;;;;;5090939;28;20207;-84
2021/01/20 10:28:02;;;;;;;8.07;6.73;;;9.40;86.90;;;;;;5094457;28;20181;-84
2021/01/20 10:30:29;;;;;;;10.75;9.75;;;9.40;86.50;;;;;;5093847;28;20188;-84
2021/01/20 10:32:55;;;;;;;10.02;9.13;;;9.60;86.20;;;;;;5100186;28;20514;-82
2021/01/20 10:35:24;;;;;;;14.50;9.60;;;9.90;85.10;;;;;;5095517;27;20195;-82
2021/01/20 10:37:49;;;;;;;7.72;6.93;;;10.10;84.20;;;;;;5109419;27;20468;-83
2021/01/20 10:40:16;;;;;;;8.40;7.53;;;10.30;83.10;;;;;;5115066;27;20190;-84
2021/01/20 10:42:42;;;;;;;7.60;6.80;;;10.30;82.90;;;;;;5102454;28;20180;-84
2021/01/20 10:45:08;;;;;;;8.47;6.70;;;10.20;83.30;;;;;;5104542;28;20209;-83
2021/01/20 10:47:35;;;;;;;8.48;7.57;;;10.10;82.70;;;;;;5105754;28;20451;-83
2021/01/20 10:50:02;;;;;;;13.45;9.02;;;10.10;84.50;;;;;;5094337;28;20850;-83
2021/01/20 10:52:29;;;;;;;25.08;19.33;;;10.50;82.10;;;;;;5095307;28;20524;-83
2021/01/20 10:54:55;;;;;;;6.72;6.13;;;10.70;81.00;;;;;;5095336;28;20176;-84
2021/01/20 10:57:21;;;;;;;6.63;5.73;;;10.80;80.10;;;;;;5096403;28;20224;-84
2021/01/20 10:59:47;;;;;;;6.87;5.90;;;10.70;80.20;;;;;;5114458;28;20424;-82
2021/01/20 11:02:12;;;;;;;7.27;6.57;;;10.80;79.80;;;;;;5108647;28;20427;-85
2021/01/20 11:04:39;;;;;;;7.70;6.90;;;11.10;79.20;;;;;;5116203;28;20184;-84
2021/01/20 11:07:05;;;;;;;8.13;7.33;;;11.00;79.30;;;;;;5110811;28;20191;-84
2021/01/20 11:09:31;;;;;;;8.90;7.47;;;11.00;79.40;;;;;;5098073;27;20928;-84
2021/01/20 11:12:00;;;;;;;8.30;7.20;;;10.90;78.90;;;;;;5105570;28;20466;-84
2021/01/20 11:14:29;;;;;;;8.13;7.32;;;10.60;80.10;;;;;;5097210;28;20810;-84
2021/01/20 11:16:55;;;;;;;7.27;6.53;;;10.80;80.60;;;;;;5115578;28;20199;-83
2021/01/20 11:19:21;;;;;;;8.33;6.10;;;10.80;80.20;;;;;;5116898;28;20442;-83
2021/01/20 11:21:46;;;;;;;15.00;12.50;;;10.90;79.90;;;;;;5108979;27;20432;-83
2021/01/20 11:24:17;;;;;;;17.43;15.20;;;11.00;80.00;;;;;;5111940;28;20428;-84
2021/01/20 11:26:46;;;;;;;17.08;11.68;;;10.70;80.40;;;;;;5104768;28;20185;-82
2021/01/20 11:29:12;;;;;;;11.27;10.00;;;10.60;81.30;;;;;;5121865;27;20210;-83
2021/01/20 11:31:38;;;;;;;10.55;8.38;;;10.40;81.60;;;;;;5106544;28;20195;-83
2021/01/20 11:34:04;;;;;;;14.00;11.37;;;10.20;82.70;;;;;;5110737;28;20631;-83
2021/01/20 11:36:30;;;;;;;9.70;8.23;;;10.00;83.80;;;;;;5109009;28;20881;-83
2021/01/20 11:38:56;;;;;;;14.63;11.90;;;10.00;84.00;;;;;;5108535;28;20519;-84
2021/01/20 11:41:24;;;;;;;10.90;9.70;;;10.30;84.00;;;;;;5102394;28;20441;-83
2021/01/20 11:43:51;;;;;;;18.20;16.30;;;10.30;83.90;;;;;;5107511;27;20184;-84
2021/01/20 11:46:19;;;;;;;19.63;16.38;;;10.00;84.70;;;;;;5099101;28;20175;-84
2021/01/20 11:48:46;;;;;;;15.93;10.85;;;9.90;85.40;;;;;;5111908;28;20291;-83
2021/01/20 11:51:12;;;;;;;15.70;10.57;;;9.90;85.90;;;;;;5107974;28;20193;-83
2021/01/20 11:53:38;;;;;;;14.53;9.77;;;10.20;85.90;;;;;;5094266;28;20228;-83
2021/01/20 11:56:04;;;;;;;11.33;9.90;;;10.20;84.70;;;;;;5092168;28;20546;-84
2021/01/20 11:58:29;;;;;;;12.20;9.50;;;10.10;85.10;;;;;;5115536;27;20260;-83
2021/01/20 12:00:55;;;;;;;10.30;9.30;;;10.40;83.80;;;;;;5113159;28;20180;-83
2021/01/20 12:03:21;;;;;;;9.40;8.20;;;10.70;83.30;;;;;;5099243;27;20522;-80
2021/01/20 12:05:49;;;;;;;7.80;7.00;;;10.80;82.60;;;;;;5120203;27;20179;-79
2021/01/20 12:08:15;;;;;;;8.25;7.35;;;10.80;82.00;;;;;;5104344;28;20180;-80
2021/01/20 12:10:41;;;;;;;10.33;9.30;;;10.70;82.10;;;;;;5109482;28;20668;-80
2021/01/20 12:13:06;;;;;;;12.17;8.93;;;10.70;82.30;;;;;;5104336;28;20176;-80
2021/01/20 12:15:32;;;;;;;8.50;7.30;;;10.80;82.50;;;;;;5093889;27;20180;-79
2021/01/20 12:17:57;;;;;;;9.20;8.20;;;10.80;82.40;;;;;;5096420;28;20552;-80
2021/01/20 12:20:23;;;;;;;12.40;11.20;;;10.70;82.10;;;;;;5102505;28;20187;-79
2021/01/20 12:22:49;;;;;;;37.60;28.30;;;10.50;83.70;;;;;;5104092;28;20200;-79
2021/01/20 12:25:14;;;;;;;16.00;14.53;;;10.50;84.20;;;;;;5103889;28;20628;-80
2021/01/20 12:27:40;;;;;;;11.73;10.50;;;10.30;84.20;;;;;;5102085;27;20179;-80
2021/01/20 12:30:07;;;;;;;10.80;9.70;;;10.30;85.20;;;;;;5111811;28;20180;-80
2021/01/20 12:32:33;;;;;;;11.85;9.07;;;10.30;85.60;;;;;;5114810;27;20188;-80
2021/01/20 12:34:58;;;;;;;11.63;9.90;;;10.20;85.50;;;;;;5118410;27;20179;-80
2021/01/20 12:37:24;;;;;;;14.47;12.93;;;10.20;85.40;;;;;;5110541;28;20203;-81
2021/01/20 12:39:50;;;;;;;32.07;25.63;;;10.30;85.80;;;;;;5107990;28;20184;-80
2021/01/20 12:42:15;;;;;;;15.73;12.37;;;10.30;85.60;;;;;;5099810;28;20187;-80
2021/01/20 12:44:41;;;;;;;17.23;12.90;;;10.30;85.60;;;;;;5091307;28;20783;-80